createdAt,value
2023-05-10T00:02:19.458Z,15.00
2023-05-10T00:04:46.653Z,14.90
2023-05-10T00:07:13.833Z,14.80
2023-05-10T00:09:41.013Z,14.90
2023-05-10T00:12:08.241Z,14.80
2023-05-10T00:14:35.606Z,14.80
2023-05-10T00:17:02.942Z,14.70
2023-05-10T00:19:30.161Z,14.80
2023-05-10T00:21:57.435Z,14.70
2023-05-10T00:24:24.680Z,14.70
2023-05-10T00:26:51.901Z,14.60
2023-05-10T00:29:20.507Z,14.60
2023-05-10T00:31:48.556Z,14.60
2023-05-10T00:34:15.801Z,14.60
2023-05-10T00:36:42.980Z,14.60
2023-05-10T00:39:10.299Z,14.60
2023-05-10T00:41:37.515Z,14.60
2023-05-10T00:44:06.754Z,14.60
2023-05-10T00:46:34.118Z,14.60
2023-05-10T00:49:01.454Z,14.60
2023-05-10T00:51:28.740Z,14.60
2023-05-10T00:53:56.936Z,14.60
2023-05-10T00:56:25.425Z,14.50
2023-05-10T00:58:54.128Z,14.50
2023-05-10T01:01:21.507Z,14.50
2023-05-10T01:03:49.316Z,14.50
2023-05-10T01:06:16.614Z,14.40
2023-05-10T01:08:43.879Z,14.40
2023-05-10T01:11:11.055Z,14.50
2023-05-10T01:13:40.262Z,14.50
2023-05-10T01:16:08.114Z,14.60
2023-05-10T01:18:41.523Z,14.60
2023-05-10T01:21:24.045Z,14.70
2023-05-10T01:24:22.320Z,14.70
2023-05-10T01:27:27.081Z,14.80
2023-05-10T01:30:16.342Z,14.80
2023-05-10T01:33:00.736Z,14.80
2023-05-10T01:35:35.936Z,14.70
2023-05-10T01:38:33.586Z,14.80
2023-05-10T01:41:20.742Z,14.90
2023-05-10T01:44:01.933Z,14.90
2023-05-10T01:46:37.975Z,15.00
2023-05-10T01:49:11.641Z,15.00
2023-05-10T01:51:47.987Z,14.90
2023-05-10T01:54:20.358Z,14.90
2023-05-10T01:56:53.576Z,14.90
2023-05-10T01:59:25.894Z,14.90
2023-05-10T02:01:55.223Z,14.90
2023-05-10T02:04:24.583Z,14.90
2023-05-10T02:06:54.013Z,14.90
2023-05-10T02:09:22.187Z,15.00
2023-05-10T02:11:51.098Z,15.00
2023-05-10T02:14:19.957Z,15.00
2023-05-10T02:16:48.254Z,15.00
2023-05-10T02:19:16.460Z,15.00
2023-05-10T02:21:45.446Z,15.00
2023-05-10T02:24:13.837Z,15.00
2023-05-10T02:26:42.704Z,14.90
2023-05-10T02:29:10.734Z,14.90
2023-05-10T02:31:39.753Z,14.80
2023-05-10T02:34:08.338Z,14.80
2023-05-10T02:36:36.491Z,14.80
2023-05-10T02:39:10.547Z,14.80
2023-05-10T02:41:38.891Z,14.80
2023-05-10T02:44:08.792Z,14.80
2023-05-10T02:46:37.779Z,14.80
2023-05-10T02:49:05.015Z,14.70
2023-05-10T02:51:35.812Z,14.80
2023-05-10T02:54:11.254Z,14.70
2023-05-10T02:56:43.457Z,14.70
2023-05-10T02:59:10.689Z,14.70
2023-05-10T03:01:37.970Z,14.70
2023-05-10T03:04:05.410Z,14.70
2023-05-10T03:06:32.724Z,14.70
2023-05-10T03:09:00.390Z,14.70
2023-05-10T03:11:39.734Z,14.70
2023-05-10T03:14:22.479Z,14.70
2023-05-10T03:17:01.039Z,14.70
2023-05-10T03:19:33.237Z,14.70
2023-05-10T03:22:05.243Z,14.70
2023-05-10T03:24:37.686Z,14.70
2023-05-10T03:27:05.586Z,14.70
2023-05-10T03:29:33.638Z,14.70
2023-05-10T03:32:01.291Z,14.60
2023-05-10T03:34:32.377Z,14.60
2023-05-10T03:36:59.786Z,14.60
2023-05-10T03:39:30.266Z,14.60
2023-05-10T03:41:59.765Z,14.60
2023-05-10T03:44:27.020Z,14.60
2023-05-10T03:46:54.597Z,14.60
2023-05-10T03:49:23.399Z,14.60
2023-05-10T03:51:50.834Z,14.60
2023-05-10T03:54:18.094Z,14.60
2023-05-10T03:56:45.329Z,14.60
2023-05-10T03:59:12.590Z,14.60
2023-05-10T04:01:39.847Z,14.60
2023-05-10T04:04:07.503Z,14.60
2023-05-10T04:06:34.837Z,14.60
2023-05-10T04:09:04.966Z,14.50
2023-05-10T04:11:32.221Z,14.50
2023-05-10T04:13:59.408Z,14.40
2023-05-10T04:16:26.650Z,14.40
2023-05-10T04:18:54.700Z,14.40
2023-05-10T04:21:21.948Z,14.40
2023-05-10T04:23:49.107Z,14.40
2023-05-10T04:26:16.331Z,14.40
2023-05-10T04:28:43.526Z,14.50
2023-05-10T04:31:11.397Z,14.40
2023-05-10T04:33:38.710Z,14.40
2023-05-10T04:36:06.414Z,14.40
2023-05-10T04:38:33.697Z,14.40
2023-05-10T04:41:08.649Z,14.40
2023-05-10T04:43:36.349Z,14.40
2023-05-10T04:46:04.187Z,14.40
2023-05-10T04:48:31.506Z,14.50
2023-05-10T04:50:58.761Z,14.50
2023-05-10T04:53:25.971Z,14.60
2023-05-10T04:55:55.679Z,14.60
2023-05-10T04:58:22.899Z,14.60
2023-05-10T05:00:50.126Z,14.70
2023-05-10T05:03:17.366Z,14.70
2023-05-10T05:05:45.810Z,14.70
2023-05-10T05:08:13.670Z,14.80
2023-05-10T05:10:40.894Z,14.90
2023-05-10T05:13:08.256Z,14.80
2023-05-10T05:15:35.567Z,14.90
2023-05-10T05:18:02.828Z,14.90
2023-05-10T05:20:35.914Z,14.90
2023-05-10T05:23:03.250Z,14.90
2023-05-10T05:25:30.589Z,14.90
2023-05-10T05:27:57.765Z,14.90
2023-05-10T05:30:25.133Z,14.90
2023-05-10T05:32:52.333Z,15.00
2023-05-10T05:35:19.713Z,15.00
2023-05-10T05:37:47.014Z,15.00
2023-05-10T05:40:15.036Z,15.00
2023-05-10T05:42:42.413Z,14.90
2023-05-10T05:45:13.825Z,14.90
2023-05-10T05:47:41.455Z,14.80
2023-05-10T05:50:09.232Z,14.80
2023-05-10T05:52:36.977Z,14.80
2023-05-10T05:55:04.629Z,14.90
2023-05-10T05:57:31.950Z,14.90
2023-05-10T05:59:59.205Z,15.00
2023-05-10T06:02:26.494Z,15.10
2023-05-10T06:04:53.770Z,15.20
2023-05-10T06:07:21.239Z,15.40
2023-05-10T06:09:48.459Z,15.70
2023-05-10T06:12:15.699Z,15.90
2023-05-10T06:14:42.924Z,16.00
2023-05-10T06:17:10.111Z,16.00
2023-05-10T06:19:37.763Z,16.10
2023-05-10T06:22:05.013Z,16.10
2023-05-10T06:24:32.214Z,16.10
2023-05-10T06:27:01.060Z,16.00
2023-05-10T06:29:28.292Z,15.90
2023-05-10T06:31:55.661Z,15.80
2023-05-10T06:34:23.050Z,15.70
2023-05-10T06:36:50.354Z,15.60
2023-05-10T06:39:17.586Z,15.60
2023-05-10T06:41:44.831Z,15.50
2023-05-10T06:44:12.282Z,15.50
2023-05-10T06:46:39.546Z,15.50
2023-05-10T06:49:06.820Z,15.60
2023-05-10T06:51:34.426Z,15.60
2023-05-10T06:54:02.209Z,15.70
2023-05-10T06:56:29.412Z,15.70
2023-05-10T06:58:56.818Z,15.70
2023-05-10T07:01:24.350Z,15.70
2023-05-10T07:03:51.656Z,15.80
2023-05-10T07:06:32.332Z,16.00
2023-05-10T07:09:01.303Z,16.10
2023-05-10T07:11:28.590Z,16.20
2023-05-10T07:13:55.771Z,16.20
2023-05-10T07:16:23.123Z,16.10
2023-05-10T07:18:51.623Z,16.30
2023-05-10T07:21:18.831Z,16.50
2023-05-10T07:23:46.087Z,16.60
2023-05-10T07:26:13.340Z,16.70
2023-05-10T07:28:40.630Z,16.80
2023-05-10T07:31:07.867Z,16.90
2023-05-10T07:33:35.140Z,17.10
2023-05-10T07:36:02.425Z,17.30
2023-05-10T07:38:29.712Z,17.40
2023-05-10T07:40:56.864Z,17.40
2023-05-10T07:43:24.104Z,17.40
2023-05-10T07:45:52.739Z,17.40
2023-05-10T07:48:21.155Z,17.20
2023-05-10T07:50:48.362Z,17.00
2023-05-10T07:53:15.500Z,16.90
2023-05-10T07:55:42.647Z,16.80
2023-05-10T07:58:09.788Z,16.80
2023-05-10T08:00:40.205Z,16.80
2023-05-10T08:03:07.471Z,16.80
2023-05-10T08:05:35.791Z,16.80
2023-05-10T08:08:03.187Z,16.80
2023-05-10T08:10:30.458Z,17.00
2023-05-10T08:12:59.265Z,17.40
2023-05-10T08:15:26.559Z,17.80
2023-05-10T08:17:53.792Z,18.20
2023-05-10T08:20:21.528Z,18.70
2023-05-10T08:22:51.183Z,19.30
2023-05-10T08:25:19.272Z,19.90
2023-05-10T08:27:49.474Z,20.60
2023-05-10T08:30:16.735Z,20.90
2023-05-10T08:32:44.013Z,21.00
2023-05-10T08:35:11.207Z,20.80
2023-05-10T08:37:38.425Z,20.50
2023-05-10T08:40:06.379Z,20.20
2023-05-10T08:42:37.125Z,19.90
2023-05-10T08:45:05.552Z,19.90
2023-05-10T08:47:33.004Z,19.90
2023-05-10T08:50:01.001Z,20.00
2023-05-10T08:52:30.985Z,20.20
2023-05-10T08:54:58.220Z,20.10
2023-05-10T08:57:25.827Z,20.00
2023-05-10T08:59:53.203Z,20.00
2023-05-10T09:02:22.053Z,19.80
2023-05-10T09:04:50.147Z,19.50
2023-05-10T09:07:18.013Z,19.10
2023-05-10T09:09:46.807Z,19.00
2023-05-10T09:12:16.546Z,18.90
2023-05-10T09:14:45.471Z,19.00
2023-05-10T09:17:13.096Z,19.00
2023-05-10T09:19:40.255Z,19.30
2023-05-10T09:22:07.774Z,19.70
2023-05-10T09:24:35.084Z,20.30
2023-05-10T09:27:02.767Z,21.20
2023-05-10T09:29:43.757Z,22.00
2023-05-10T09:32:10.957Z,22.60
2023-05-10T09:34:40.948Z,22.90
2023-05-10T09:37:09.102Z,23.40
2023-05-10T09:39:37.956Z,24.10
2023-05-10T09:42:07.387Z,24.10
2023-05-10T09:44:34.992Z,23.30
2023-05-10T09:47:03.259Z,22.60
2023-05-10T09:49:30.990Z,21.90
2023-05-10T09:52:06.589Z,21.40
2023-05-10T09:54:34.938Z,21.10
2023-05-10T09:57:02.660Z,20.80
2023-05-10T09:59:30.171Z,20.60
2023-05-10T10:02:01.582Z,20.20
2023-05-10T10:04:30.160Z,19.80
2023-05-10T10:07:05.189Z,19.50
2023-05-10T10:09:33.219Z,19.20
2023-05-10T10:12:01.737Z,19.00
2023-05-10T10:14:30.198Z,18.90
2023-05-10T10:17:07.625Z,18.90
2023-05-10T10:19:36.776Z,18.90
2023-05-10T10:22:04.463Z,18.80
2023-05-10T10:24:31.723Z,18.80
2023-05-10T10:27:10.205Z,18.90
2023-05-10T10:29:50.786Z,19.10
2023-05-10T10:32:21.780Z,19.50
2023-05-10T10:34:49.235Z,19.90
2023-05-10T10:37:16.625Z,20.50
2023-05-10T10:39:43.860Z,20.80
2023-05-10T10:42:11.137Z,20.80
2023-05-10T10:44:39.401Z,20.80
2023-05-10T10:47:13.029Z,20.60
2023-05-10T10:50:04.265Z,20.40
2023-05-10T10:52:45.025Z,20.30
2023-05-10T10:55:19.200Z,20.00
2023-05-10T10:57:52.651Z,19.80
2023-05-10T11:00:24.220Z,19.70
2023-05-10T11:03:15.338Z,19.70
2023-05-10T11:05:49.090Z,19.70
2023-05-10T11:08:29.644Z,19.80
2023-05-10T11:10:59.637Z,19.80
2023-05-10T11:13:35.487Z,19.80
2023-05-10T11:16:16.459Z,19.70
2023-05-10T11:19:06.116Z,19.70
2023-05-10T11:21:34.814Z,19.50
2023-05-10T11:24:06.905Z,19.40
2023-05-10T11:26:38.142Z,19.40
2023-05-10T11:29:05.948Z,19.40
2023-05-10T11:31:36.404Z,19.40
2023-05-10T11:34:05.997Z,19.50
2023-05-10T11:36:37.472Z,19.60
2023-05-10T11:39:05.852Z,19.60
2023-05-10T11:41:33.112Z,19.70
2023-05-10T11:44:00.769Z,20.00
2023-05-10T11:46:29.411Z,20.10
2023-05-10T11:49:07.960Z,20.10
2023-05-10T11:51:40.363Z,20.20
2023-05-10T11:54:10.277Z,20.20
2023-05-10T11:56:39.229Z,20.10
2023-05-10T11:59:06.697Z,20.10
2023-05-10T12:01:34.673Z,19.90
2023-05-10T12:04:02.369Z,20.00
2023-05-10T12:06:34.850Z,20.10
2023-05-10T12:09:07.673Z,20.10
2023-05-10T12:11:43.560Z,20.10
2023-05-10T12:14:12.197Z,20.00
2023-05-10T12:16:39.454Z,19.50
2023-05-10T12:19:06.836Z,19.50
2023-05-10T12:21:34.346Z,19.30
2023-05-10T12:24:04.396Z,19.20
2023-05-10T12:26:32.048Z,19.10
2023-05-10T12:29:19.486Z,19.20
2023-05-10T12:32:00.972Z,19.20
2023-05-10T12:34:32.162Z,19.30
2023-05-10T12:36:59.870Z,19.70
2023-05-10T12:39:27.077Z,20.10
2023-05-10T12:41:54.238Z,20.60
2023-05-10T12:44:21.546Z,21.20
2023-05-10T12:46:48.815Z,21.70
2023-05-10T12:49:16.007Z,22.10
2023-05-10T12:51:43.189Z,23.00
2023-05-10T12:54:10.696Z,23.70
2023-05-10T12:56:38.043Z,23.90
2023-05-10T12:59:05.577Z,23.90
2023-05-10T13:01:32.804Z,24.10
2023-05-10T13:04:01.086Z,24.20
2023-05-10T13:06:29.427Z,24.10
2023-05-10T13:08:58.454Z,24.10
2023-05-10T13:11:28.780Z,24.30
2023-05-10T13:13:56.534Z,24.70
2023-05-10T13:16:23.874Z,25.30
2023-05-10T13:18:51.554Z,25.70
2023-05-10T13:21:19.017Z,26.00
2023-05-10T13:23:47.428Z,26.10
2023-05-10T13:26:14.720Z,26.00
2023-05-10T13:28:41.892Z,26.80
2023-05-10T13:31:09.206Z,27.60
2023-05-10T13:33:36.394Z,28.10
2023-05-10T13:36:03.824Z,28.00
2023-05-10T13:38:30.984Z,27.40
2023-05-10T13:40:58.139Z,26.60
2023-05-10T13:43:25.329Z,26.00
2023-05-10T13:45:53.145Z,25.30
2023-05-10T13:48:20.334Z,24.60
2023-05-10T13:50:47.930Z,24.10
2023-05-10T13:53:15.452Z,23.60
2023-05-10T13:55:42.876Z,23.10
2023-05-10T13:58:10.066Z,22.60
2023-05-10T14:00:37.471Z,22.10
2023-05-10T14:03:06.248Z,21.70
2023-05-10T14:05:33.623Z,21.40
2023-05-10T14:08:00.765Z,21.20
2023-05-10T14:10:27.932Z,21.10
2023-05-10T14:12:55.218Z,21.10
2023-05-10T14:15:22.448Z,21.30
2023-05-10T14:17:49.678Z,21.20
2023-05-10T14:20:16.970Z,21.30
2023-05-10T14:22:44.128Z,21.50
2023-05-10T14:25:12.397Z,21.70
2023-05-10T14:27:39.575Z,21.80
2023-05-10T14:30:07.671Z,21.80
2023-05-10T14:32:35.141Z,22.10
2023-05-10T14:35:02.498Z,22.70
2023-05-10T14:37:29.690Z,23.30
2023-05-10T14:39:56.850Z,23.50
2023-05-10T14:42:24.037Z,23.50
2023-05-10T14:44:51.394Z,23.60
2023-05-10T14:47:18.619Z,23.70
2023-05-10T14:49:45.788Z,23.60
2023-05-10T14:52:13.202Z,23.40
2023-05-10T14:54:41.202Z,23.30
2023-05-10T14:57:08.392Z,23.10
2023-05-10T14:59:35.764Z,22.90
2023-05-10T15:02:05.134Z,22.50
2023-05-10T15:04:33.134Z,22.20
2023-05-10T15:07:01.381Z,21.90
2023-05-10T15:09:28.664Z,21.90
2023-05-10T15:11:56.525Z,21.90
2023-05-10T15:14:24.313Z,22.30
2023-05-10T15:16:51.547Z,22.50
2023-05-10T15:19:18.733Z,23.10
2023-05-10T15:21:46.264Z,24.00
2023-05-10T15:24:13.486Z,25.00
2023-05-10T15:26:41.362Z,25.90
2023-05-10T15:29:08.753Z,26.60
2023-05-10T15:31:36.770Z,26.90
2023-05-10T15:34:04.054Z,26.90
2023-05-10T15:36:33.023Z,27.20
2023-05-10T15:39:00.174Z,27.60
2023-05-10T15:41:27.727Z,27.60
2023-05-10T15:43:55.020Z,27.20
2023-05-10T15:46:22.668Z,26.40
2023-05-10T15:48:49.950Z,25.50
2023-05-10T15:51:17.311Z,24.60
2023-05-10T15:53:56.545Z,24.10
2023-05-10T15:56:28.385Z,23.70
2023-05-10T15:58:55.748Z,23.60
2023-05-10T16:01:23.050Z,23.40
2023-05-10T16:03:50.372Z,23.30
2023-05-10T16:06:17.607Z,23.30
2023-05-10T16:08:44.815Z,23.20
2023-05-10T16:11:12.131Z,23.20
2023-05-10T16:13:39.349Z,23.20
2023-05-10T16:16:08.894Z,23.20
2023-05-10T16:18:36.482Z,23.00
2023-05-10T16:21:04.000Z,22.90
2023-05-10T16:23:31.195Z,22.80
2023-05-10T16:25:58.408Z,22.70
2023-05-10T16:28:25.789Z,22.60
2023-05-10T16:30:53.077Z,22.60
2023-05-10T16:33:20.763Z,22.60
2023-05-10T16:35:47.960Z,22.50
2023-05-10T16:38:15.207Z,22.50
2023-05-10T16:40:42.463Z,22.60
2023-05-10T16:43:09.688Z,22.70
2023-05-10T16:45:36.852Z,22.70
2023-05-10T16:48:04.143Z,22.70
2023-05-10T16:50:31.349Z,22.50
2023-05-10T16:52:58.692Z,22.40
2023-05-10T16:55:26.558Z,22.40
2023-05-10T16:57:59.641Z,22.30
2023-05-10T17:00:27.300Z,22.30
2023-05-10T17:02:54.934Z,22.30
2023-05-10T17:05:22.875Z,22.20
2023-05-10T17:07:50.519Z,22.00
2023-05-10T17:10:17.953Z,21.70
2023-05-10T17:12:45.756Z,21.50
2023-05-10T17:15:13.259Z,21.40
2023-05-10T17:17:40.575Z,21.20
2023-05-10T17:20:08.545Z,21.10
2023-05-10T17:22:35.896Z,21.00
2023-05-10T17:25:04.175Z,20.80
2023-05-10T17:27:31.640Z,20.60
2023-05-10T17:29:59.426Z,20.50
2023-05-10T17:32:26.725Z,20.30
2023-05-10T17:34:53.929Z,20.10
2023-05-10T17:37:21.142Z,19.90
2023-05-10T17:39:48.338Z,19.60
2023-05-10T17:42:17.539Z,19.40
2023-05-10T17:44:44.741Z,19.20
2023-05-10T17:47:12.006Z,18.90
2023-05-10T17:49:39.883Z,18.80
2023-05-10T17:52:09.377Z,18.50
2023-05-10T17:54:36.611Z,18.50
2023-05-10T17:57:03.950Z,18.30
2023-05-10T17:59:31.094Z,18.20
2023-05-10T18:01:58.286Z,18.00
2023-05-10T18:04:27.961Z,17.90
2023-05-10T18:07:01.134Z,17.80
2023-05-10T18:09:29.116Z,18.30
2023-05-10T18:11:56.514Z,17.70
2023-05-10T18:14:36.469Z,17.60
2023-05-10T18:17:06.908Z,17.60
2023-05-10T18:19:34.288Z,17.60
2023-05-10T18:22:01.558Z,17.60
2023-05-10T18:24:38.236Z,17.60
2023-05-10T18:27:07.903Z,17.60
2023-05-10T18:29:36.098Z,17.60
2023-05-10T18:32:04.602Z,17.60
2023-05-10T18:34:34.906Z,17.60
2023-05-10T18:37:07.093Z,17.60
2023-05-10T18:39:34.332Z,17.60
2023-05-10T18:42:01.803Z,17.50
2023-05-10T18:44:29.193Z,17.40
2023-05-10T18:46:56.679Z,17.20
2023-05-10T18:49:24.058Z,17.20
2023-05-10T18:51:51.350Z,17.10
2023-05-10T18:54:18.643Z,17.10
2023-05-10T18:56:46.311Z,17.10
2023-05-10T18:59:13.887Z,17.00
2023-05-10T19:01:41.715Z,17.10
2023-05-10T19:04:09.027Z,17.00
2023-05-10T19:06:36.530Z,17.00
2023-05-10T19:09:03.898Z,17.00
2023-05-10T19:11:33.927Z,17.00
2023-05-10T19:14:02.066Z,16.90
2023-05-10T19:16:30.573Z,16.90
2023-05-10T19:18:58.078Z,16.90
2023-05-10T19:21:25.410Z,16.80
2023-05-10T19:23:53.590Z,16.80
2023-05-10T19:26:21.740Z,16.80
2023-05-10T19:28:51.898Z,16.80
2023-05-10T19:31:19.898Z,16.80
2023-05-10T19:33:47.254Z,16.70
2023-05-10T19:36:14.504Z,16.50
2023-05-10T19:38:41.884Z,16.60
2023-05-10T19:41:09.134Z,16.60
2023-05-10T19:43:39.663Z,16.60
2023-05-10T19:46:06.910Z,16.60
2023-05-10T19:48:34.128Z,16.50
2023-05-10T19:51:03.027Z,16.60
2023-05-10T19:53:30.642Z,16.50
2023-05-10T19:56:03.846Z,16.60
2023-05-10T19:58:31.377Z,16.60
2023-05-10T20:00:58.645Z,16.60
2023-05-10T20:03:25.948Z,16.60
2023-05-10T20:05:53.351Z,16.50
2023-05-10T20:08:20.634Z,16.50
2023-05-10T20:10:47.947Z,16.50
2023-05-10T20:13:15.180Z,16.40
2023-05-10T20:15:42.365Z,16.40
2023-05-10T20:18:09.785Z,16.50
2023-05-10T20:20:37.081Z,16.40
2023-05-10T20:23:04.293Z,16.40
2023-05-10T20:25:31.674Z,16.40
2023-05-10T20:27:58.873Z,16.40
2023-05-10T20:30:26.284Z,16.40
2023-05-10T20:32:53.583Z,16.40
2023-05-10T20:35:20.936Z,16.40
2023-05-10T20:37:48.421Z,16.40
2023-05-10T20:40:15.808Z,16.30
2023-05-10T20:42:43.162Z,16.30
2023-05-10T20:45:10.894Z,16.30
2023-05-10T20:47:38.193Z,16.30
2023-05-10T20:50:05.981Z,16.30
2023-05-10T20:52:33.168Z,16.20
2023-05-10T20:55:00.334Z,16.30
2023-05-10T20:57:27.539Z,16.30
2023-05-10T20:59:54.763Z,16.30
2023-05-10T21:02:21.992Z,16.30
2023-05-10T21:04:49.199Z,16.30
2023-05-10T21:07:16.713Z,16.30
2023-05-10T21:09:43.875Z,16.20
2023-05-10T21:12:11.283Z,16.20
2023-05-10T21:14:38.476Z,16.10
2023-05-10T21:17:05.686Z,16.00
2023-05-10T21:19:32.893Z,16.00
2023-05-10T21:22:00.098Z,16.00
2023-05-10T21:24:27.323Z,15.90
2023-05-10T21:26:54.549Z,15.90
2023-05-10T21:29:21.811Z,15.80
2023-05-10T21:31:49.061Z,15.80
2023-05-10T21:34:17.873Z,15.80
2023-05-10T21:36:45.115Z,15.80
2023-05-10T21:39:12.353Z,15.80
2023-05-10T21:41:39.529Z,15.80
2023-05-10T21:44:06.757Z,15.80
2023-05-10T21:46:33.913Z,15.90
2023-05-10T21:49:01.081Z,15.90
2023-05-10T21:51:29.171Z,15.90
2023-05-10T21:53:56.516Z,15.90
2023-05-10T21:56:23.734Z,15.80
2023-05-10T21:58:50.948Z,15.90
2023-05-10T22:01:18.329Z,15.90
2023-05-10T22:03:45.695Z,15.90
2023-05-10T22:06:12.965Z,15.90
2023-05-10T22:08:40.274Z,16.00
2023-05-10T22:11:07.470Z,16.00
2023-05-10T22:13:34.665Z,16.00
2023-05-10T22:16:01.984Z,16.00
2023-05-10T22:18:29.495Z,15.90
2023-05-10T22:20:56.733Z,15.90
2023-05-10T22:23:23.921Z,15.90
2023-05-10T22:25:51.156Z,15.80
2023-05-10T22:28:18.376Z,15.80
2023-05-10T22:30:45.722Z,15.80
2023-05-10T22:33:12.988Z,15.70
2023-05-10T22:35:40.279Z,15.70
2023-05-10T22:38:07.515Z,15.70
2023-05-10T22:40:34.704Z,15.70
2023-05-10T22:43:01.988Z,15.70
2023-05-10T22:45:29.211Z,15.70
2023-05-10T22:47:56.613Z,15.70
2023-05-10T22:50:24.654Z,15.70
2023-05-10T22:52:51.929Z,15.70
2023-05-10T22:55:19.345Z,15.70
2023-05-10T22:57:46.615Z,15.80
2023-05-10T23:00:14.579Z,15.80
2023-05-10T23:02:41.940Z,15.80
2023-05-10T23:05:09.837Z,15.80
2023-05-10T23:07:37.179Z,15.70
2023-05-10T23:10:04.740Z,15.70
2023-05-10T23:12:32.110Z,15.80
2023-05-10T23:14:59.632Z,15.80
2023-05-10T23:17:26.985Z,15.80
2023-05-10T23:19:54.249Z,15.80
2023-05-10T23:22:21.841Z,15.80
2023-05-10T23:24:49.135Z,15.80
2023-05-10T23:27:16.549Z,15.80
2023-05-10T23:29:43.805Z,15.90
2023-05-10T23:32:11.483Z,15.90
2023-05-10T23:34:38.744Z,15.90
2023-05-10T23:37:06.188Z,15.90
2023-05-10T23:39:33.937Z,15.90
2023-05-10T23:42:01.473Z,15.80
2023-05-10T23:44:28.695Z,16.00
2023-05-10T23:46:56.073Z,16.00
2023-05-10T23:49:23.322Z,16.00
2023-05-10T23:51:50.688Z,15.90
2023-05-10T23:54:18.117Z,15.80
2023-05-10T23:56:45.390Z,15.70
2023-05-10T23:59:14.721Z,15.70
